createdAt,value
2017-08-17T00:02:19.787Z,5.73
2017-08-17T00:04:46.943Z,7.40
2017-08-17T00:07:13.827Z,7.50
2017-08-17T00:09:40.663Z,10.73
2017-08-17T00:12:07.812Z,5.47
2017-08-17T00:14:34.883Z,6.70
2017-08-17T00:17:01.895Z,8.93
2017-08-17T00:19:28.794Z,7.40
2017-08-17T00:21:56.003Z,6.80
2017-08-17T00:24:22.831Z,6.73
2017-08-17T00:26:50.255Z,6.70
2017-08-17T00:29:17.308Z,7.30
2017-08-17T00:31:44.215Z,6.10
2017-08-17T00:34:11.271Z,7.80
2017-08-17T00:36:38.321Z,11.47
2017-08-17T00:39:05.378Z,7.27
2017-08-17T00:41:32.190Z,8.90
2017-08-17T00:43:59.697Z,10.23
2017-08-17T00:46:27.068Z,8.80
2017-08-17T00:48:54.206Z,10.70
2017-08-17T00:51:21.259Z,7.50
2017-08-17T00:53:48.856Z,9.80
2017-08-17T00:56:16.290Z,6.43
2017-08-17T00:58:43.336Z,7.13
2017-08-17T01:01:11.452Z,7.23
2017-08-17T01:03:38.821Z,8.77
2017-08-17T01:06:05.677Z,6.77
2017-08-17T01:08:32.489Z,9.03
2017-08-17T01:10:59.288Z,6.13
2017-08-17T01:13:26.407Z,7.37
2017-08-17T01:15:53.210Z,6.03
2017-08-17T01:18:20.063Z,9.10
2017-08-17T01:20:47.130Z,9.13
2017-08-17T01:23:14.705Z,6.37
2017-08-17T01:25:42.413Z,7.97
2017-08-17T01:28:09.712Z,6.17
2017-08-17T01:30:36.867Z,8.90
2017-08-17T01:33:04.073Z,9.20
2017-08-17T01:35:31.367Z,11.67
2017-08-17T01:37:58.644Z,6.63
2017-08-17T01:40:26.438Z,5.53
2017-08-17T01:42:53.741Z,7.13
2017-08-17T01:45:21.059Z,5.67
2017-08-17T01:47:48.384Z,7.20
2017-08-17T01:50:15.271Z,6.70
2017-08-17T01:52:42.688Z,6.60
2017-08-17T01:55:09.691Z,9.27
2017-08-17T01:57:36.903Z,8.10
2017-08-17T02:00:04.530Z,10.60
2017-08-17T02:02:31.626Z,5.23
2017-08-17T02:04:59.029Z,7.00
2017-08-17T02:07:26.460Z,7.83
2017-08-17T02:09:53.948Z,6.37
2017-08-17T02:12:21.543Z,5.63
2017-08-17T02:14:48.738Z,5.83
2017-08-17T02:17:15.852Z,7.77
2017-08-17T02:19:43.154Z,7.20
2017-08-17T02:22:09.949Z,6.30
2017-08-17T02:24:36.951Z,7.23
2017-08-17T02:27:04.205Z,10.20
2017-08-17T02:29:31.333Z,5.73
2017-08-17T02:31:58.370Z,5.77
2017-08-17T02:34:25.874Z,6.10
2017-08-17T02:36:53.281Z,10.17
2017-08-17T02:39:21.034Z,7.47
2017-08-17T02:41:48.159Z,5.50
2017-08-17T02:44:15.213Z,5.80
2017-08-17T02:46:42.886Z,5.73
2017-08-17T02:49:10.122Z,9.33
2017-08-17T02:51:38.268Z,6.43
2017-08-17T02:54:05.123Z,5.80
2017-08-17T02:56:32.159Z,6.47
2017-08-17T02:58:59.379Z,6.17
2017-08-17T03:01:26.663Z,14.13
2017-08-17T03:03:54.243Z,5.60
2017-08-17T03:08:54.358Z,5.40
2017-08-17T03:11:21.633Z,5.87
2017-08-17T03:13:48.440Z,6.30
2017-08-17T03:16:15.503Z,6.13
2017-08-17T03:18:43.169Z,6.30
2017-08-17T03:21:09.992Z,7.10
2017-08-17T03:23:37.272Z,12.37
2017-08-17T03:26:04.166Z,6.90
2017-08-17T03:28:31.659Z,7.50
2017-08-17T03:30:58.738Z,7.50
2017-08-17T03:33:26.103Z,7.17
2017-08-17T03:35:53.152Z,7.03
2017-08-17T03:38:20.741Z,6.43
2017-08-17T03:40:48.496Z,8.30
2017-08-17T03:43:15.549Z,13.30
2017-08-17T03:45:42.381Z,5.87
2017-08-17T03:48:09.164Z,10.73
2017-08-17T03:50:35.966Z,6.57
2017-08-17T03:53:03.138Z,6.80
2017-08-17T03:55:30.580Z,7.33
2017-08-17T03:57:57.730Z,9.63
2017-08-17T04:00:24.917Z,6.10
2017-08-17T04:02:51.804Z,7.60
2017-08-17T04:05:19.171Z,5.83
2017-08-17T04:07:46.735Z,5.90
2017-08-17T04:10:13.737Z,7.73
2017-08-17T04:15:13.986Z,8.10
2017-08-17T04:17:41.037Z,6.40
2017-08-17T04:20:08.088Z,30.90
2017-08-17T04:22:34.911Z,6.50
2017-08-17T04:25:01.889Z,8.63
2017-08-17T04:27:28.717Z,7.73
2017-08-17T04:29:56.556Z,10.27
2017-08-17T04:32:23.664Z,7.70
2017-08-17T04:34:50.717Z,11.70
2017-08-17T04:37:17.805Z,7.10
2017-08-17T04:39:44.958Z,6.23
2017-08-17T04:42:12.047Z,6.80
2017-08-17T04:44:38.928Z,7.23
2017-08-17T04:47:06.507Z,7.20
2017-08-17T04:49:33.346Z,9.60
2017-08-17T04:52:00.714Z,6.60
2017-08-17T04:54:27.881Z,8.03
2017-08-17T04:57:06.300Z,7.20
2017-08-17T04:59:33.761Z,6.90
2017-08-17T05:02:00.852Z,10.00
2017-08-17T05:04:27.701Z,7.13
2017-08-17T05:06:54.487Z,6.30
2017-08-17T05:09:21.881Z,7.50
2017-08-17T05:11:48.703Z,6.40
2017-08-17T05:14:15.849Z,9.37
2017-08-17T05:16:43.436Z,7.67
2017-08-17T05:19:11.489Z,7.63
2017-08-17T05:21:38.267Z,7.67
2017-08-17T05:24:05.677Z,9.47
2017-08-17T05:26:32.644Z,8.20
2017-08-17T05:29:00.166Z,11.53
2017-08-17T05:31:26.978Z,9.33
2017-08-17T05:33:54.610Z,12.37
2017-08-17T05:36:21.614Z,8.43
2017-08-17T05:38:49.116Z,6.03
2017-08-17T05:41:16.674Z,8.27
2017-08-17T05:46:16.898Z,7.87
2017-08-17T05:48:43.667Z,6.63
2017-08-17T05:51:11.046Z,8.13
2017-08-17T05:53:38.210Z,7.97
2017-08-17T05:56:05.262Z,16.43
2017-08-17T05:58:33.105Z,8.90
2017-08-17T06:01:00.549Z,6.77
2017-08-17T06:03:27.397Z,7.87
2017-08-17T06:05:54.556Z,6.53
2017-08-17T06:08:21.365Z,6.23
2017-08-17T06:10:48.734Z,6.57
2017-08-17T06:13:15.511Z,5.60
2017-08-17T06:15:43.222Z,6.07
2017-08-17T06:18:10.010Z,7.37
2017-08-17T06:20:37.233Z,7.57
2017-08-17T06:23:04.217Z,7.23
2017-08-17T06:25:31.544Z,5.73
2017-08-17T06:27:58.512Z,5.90
2017-08-17T06:30:25.669Z,8.93
2017-08-17T06:32:53.094Z,8.63
2017-08-17T06:35:19.896Z,15.63
2017-08-17T06:37:46.876Z,14.00
2017-08-17T06:40:14.062Z,7.67
2017-08-17T06:42:41.117Z,12.37
2017-08-17T06:45:08.358Z,27.80
2017-08-17T06:47:36.098Z,8.20
2017-08-17T06:50:03.071Z,9.00
2017-08-17T06:52:30.251Z,12.00
2017-08-17T06:54:57.303Z,11.10
2017-08-17T06:57:24.200Z,6.93
2017-08-17T06:59:51.101Z,10.50
2017-08-17T07:02:18.010Z,11.70
2017-08-17T07:04:45.291Z,18.50
2017-08-17T07:07:12.261Z,9.57
2017-08-17T07:09:39.517Z,9.37
2017-08-17T07:12:06.927Z,9.90
2017-08-17T07:14:34.120Z,11.73
2017-08-17T07:17:01.406Z,10.60
2017-08-17T07:19:29.203Z,11.43
2017-08-17T07:21:56.115Z,11.30
2017-08-17T07:24:23.540Z,13.20
2017-08-17T07:26:50.528Z,14.73
2017-08-17T07:29:17.353Z,14.33
2017-08-17T07:31:44.330Z,16.83
2017-08-17T07:34:11.998Z,13.03
2017-08-17T07:36:39.524Z,17.40
2017-08-17T07:39:07.020Z,13.33
2017-08-17T07:41:34.690Z,20.20
2017-08-17T07:44:01.729Z,18.20
2017-08-17T07:46:28.794Z,15.63
2017-08-17T07:48:56.199Z,19.13
2017-08-17T07:51:23.881Z,16.23
2017-08-17T07:53:51.666Z,21.37
2017-08-17T07:56:18.858Z,17.17
2017-08-17T07:58:45.741Z,15.30
2017-08-17T08:01:12.790Z,21.70
2017-08-17T08:03:39.576Z,19.03
2017-08-17T08:06:06.760Z,26.30
2017-08-17T08:08:33.809Z,22.00
2017-08-17T08:11:00.592Z,26.93
2017-08-17T08:13:27.926Z,22.87
2017-08-17T08:15:54.971Z,23.10
2017-08-17T08:18:22.040Z,18.30
2017-08-17T08:20:48.875Z,20.80
2017-08-17T08:23:16.068Z,21.37
2017-08-17T08:25:43.479Z,22.30
2017-08-17T08:28:10.539Z,19.93
2017-08-17T08:30:37.344Z,17.17
2017-08-17T08:33:04.148Z,19.63
2017-08-17T08:35:31.392Z,19.37
2017-08-17T08:37:59.061Z,19.07
2017-08-17T08:40:26.109Z,18.37
2017-08-17T08:42:53.369Z,19.43
2017-08-17T08:45:20.534Z,23.10
2017-08-17T08:47:48.189Z,21.57
2017-08-17T08:50:15.558Z,25.60
2017-08-17T08:52:42.343Z,27.30
2017-08-17T08:55:09.682Z,17.33
2017-08-17T08:57:36.708Z,22.03
2017-08-17T09:00:03.503Z,19.60
2017-08-17T09:02:30.322Z,20.60
2017-08-17T09:04:57.565Z,17.93
2017-08-17T09:07:24.462Z,17.83
2017-08-17T09:09:51.870Z,16.43
2017-08-17T09:12:19.031Z,17.10
2017-08-17T09:14:46.137Z,20.23
2017-08-17T09:17:13.439Z,19.30
2017-08-17T09:19:40.266Z,21.03
2017-08-17T09:22:07.040Z,20.70
2017-08-17T09:24:34.168Z,16.03
2017-08-17T09:27:01.356Z,16.70
2017-08-17T09:29:28.708Z,17.93
2017-08-17T09:31:55.597Z,16.83
2017-08-17T09:34:22.465Z,18.70
2017-08-17T09:36:49.568Z,17.77
2017-08-17T09:39:16.351Z,19.10
2017-08-17T09:41:43.674Z,18.60
2017-08-17T09:44:10.559Z,20.23
2017-08-17T09:46:37.980Z,21.13
2017-08-17T09:49:05.145Z,20.27
2017-08-17T09:51:32.797Z,17.07
2017-08-17T09:53:59.853Z,18.00
2017-08-17T09:56:26.663Z,18.93
2017-08-17T09:58:53.440Z,15.93
2017-08-17T10:01:20.399Z,18.30
2017-08-17T10:03:47.236Z,15.50
2017-08-17T10:06:14.767Z,17.87
2017-08-17T10:08:41.543Z,20.30
2017-08-17T10:11:08.720Z,17.90
2017-08-17T10:13:36.218Z,18.00
2017-08-17T10:16:03.331Z,15.83
2017-08-17T10:18:31.308Z,17.17
2017-08-17T10:20:58.103Z,19.00
2017-08-17T10:23:24.944Z,15.30
2017-08-17T10:25:52.169Z,18.97
2017-08-17T10:28:18.948Z,15.00
2017-08-17T10:30:45.850Z,17.77
2017-08-17T10:33:13.483Z,14.50
2017-08-17T10:35:40.514Z,14.77
2017-08-17T10:38:07.730Z,16.60
2017-08-17T10:40:34.614Z,16.23
2017-08-17T10:43:01.699Z,16.57
2017-08-17T10:45:28.730Z,16.10
2017-08-17T10:47:56.249Z,18.87
2017-08-17T10:50:23.031Z,19.10
2017-08-17T10:52:50.253Z,14.90
2017-08-17T10:55:17.088Z,16.23
2017-08-17T10:57:44.476Z,13.80
2017-08-17T11:00:11.701Z,14.43
2017-08-17T11:02:39.441Z,16.83
2017-08-17T11:05:06.267Z,17.47
2017-08-17T11:07:33.039Z,14.23
2017-08-17T11:10:00.743Z,14.63
2017-08-17T11:12:27.706Z,13.53
2017-08-17T11:14:55.377Z,12.40
2017-08-17T11:17:22.338Z,12.33
2017-08-17T11:19:49.475Z,16.00
2017-08-17T11:22:17.329Z,14.87
2017-08-17T11:24:44.605Z,12.33
2017-08-17T11:27:11.711Z,11.83
2017-08-17T11:29:38.770Z,13.50
2017-08-17T11:32:05.813Z,18.90
2017-08-17T11:34:33.044Z,13.73
2017-08-17T11:37:00.075Z,13.20
2017-08-17T11:39:26.908Z,13.53
2017-08-17T11:41:54.181Z,12.63
2017-08-17T11:44:21.234Z,13.50
2017-08-17T11:46:48.179Z,13.30
2017-08-17T11:49:15.002Z,12.67
2017-08-17T11:51:42.085Z,13.47
2017-08-17T11:54:09.332Z,13.40
2017-08-17T11:56:36.207Z,14.07
2017-08-17T11:59:03.868Z,12.97
2017-08-17T12:01:31.219Z,12.60
2017-08-17T12:03:58.274Z,12.20
2017-08-17T12:06:26.079Z,13.97
2017-08-17T12:08:52.931Z,15.00
2017-08-17T12:11:19.889Z,17.73
2017-08-17T12:13:46.713Z,17.93
2017-08-17T12:16:13.845Z,15.10
2017-08-17T12:18:40.761Z,13.20
2017-08-17T12:21:08.323Z,14.30
2017-08-17T12:23:35.662Z,13.40
2017-08-17T12:26:02.671Z,15.03
2017-08-17T12:28:29.913Z,14.60
2017-08-17T12:30:56.940Z,12.50
2017-08-17T12:33:23.975Z,13.60
2017-08-17T12:35:51.194Z,13.33
2017-08-17T12:38:18.007Z,12.37
2017-08-17T12:40:45.407Z,13.07
2017-08-17T12:43:12.243Z,14.00
2017-08-17T12:45:39.253Z,12.37
2017-08-17T12:48:06.464Z,14.17
2017-08-17T12:50:33.508Z,11.13
2017-08-17T12:53:00.406Z,11.47
2017-08-17T12:55:27.454Z,11.47
2017-08-17T12:57:54.292Z,12.73
2017-08-17T13:00:21.414Z,11.70
2017-08-17T13:02:48.800Z,11.90
2017-08-17T13:05:16.565Z,13.20
2017-08-17T13:07:43.419Z,13.33
2017-08-17T13:10:10.548Z,14.63
2017-08-17T13:12:37.359Z,12.27
2017-08-17T13:15:04.187Z,11.90
2017-08-17T13:17:31.400Z,10.33
2017-08-17T13:19:58.456Z,12.07
2017-08-17T13:22:25.316Z,11.87
2017-08-17T13:24:52.785Z,11.40
2017-08-17T13:27:19.582Z,13.23
2017-08-17T13:29:46.438Z,13.30
2017-08-17T13:32:13.419Z,12.07
2017-08-17T13:34:40.470Z,12.07
2017-08-17T13:37:07.307Z,16.90
2017-08-17T13:39:34.571Z,13.27
2017-08-17T13:42:01.621Z,21.10
2017-08-17T13:44:28.512Z,13.37
2017-08-17T13:46:56.088Z,11.43
2017-08-17T13:49:23.091Z,13.37
2017-08-17T13:51:49.914Z,12.17
2017-08-17T13:54:17.198Z,13.60
2017-08-17T13:56:44.611Z,17.80
2017-08-17T13:59:11.450Z,12.40
2017-08-17T14:01:38.891Z,11.60
2017-08-17T14:04:06.028Z,15.43
2017-08-17T14:06:33.213Z,11.67
2017-08-17T14:09:00.697Z,12.53
2017-08-17T14:12:08.546Z,11.43
2017-08-17T14:14:35.761Z,10.27
2017-08-17T14:17:02.550Z,12.10
2017-08-17T14:19:29.634Z,10.70
2017-08-17T14:21:56.678Z,11.00
2017-08-17T14:24:24.200Z,9.57
2017-08-17T14:26:51.321Z,10.60
2017-08-17T14:29:18.303Z,14.43
2017-08-17T14:31:45.216Z,11.10
2017-08-17T14:34:12.419Z,12.03
2017-08-17T14:36:39.212Z,11.00
2017-08-17T14:39:06.054Z,9.73
2017-08-17T14:41:33.286Z,10.43
2017-08-17T14:44:00.322Z,15.60
2017-08-17T14:46:27.371Z,13.50
2017-08-17T14:48:54.262Z,15.40
2017-08-17T14:51:21.480Z,14.67
2017-08-17T14:53:48.267Z,14.40
2017-08-17T14:56:15.276Z,15.90
2017-08-17T14:58:42.069Z,15.00
2017-08-17T15:01:09.388Z,18.43
2017-08-17T15:03:36.438Z,17.73
2017-08-17T15:06:03.494Z,17.30
2017-08-17T15:08:31.163Z,16.83
2017-08-17T15:10:57.992Z,20.37
2017-08-17T15:13:24.822Z,17.03
2017-08-17T15:15:51.610Z,21.03
2017-08-17T15:18:18.756Z,14.37
2017-08-17T15:20:45.812Z,20.30
2017-08-17T15:23:13.347Z,17.90
2017-08-17T15:25:40.177Z,20.00
2017-08-17T15:28:06.982Z,17.27
2017-08-17T15:30:34.634Z,15.20
2017-08-17T15:33:01.690Z,13.60
2017-08-17T15:35:28.585Z,14.17
2017-08-17T15:37:56.025Z,16.07
2017-08-17T15:40:23.591Z,13.73
2017-08-17T15:42:50.821Z,11.93
2017-08-17T15:45:17.625Z,10.40
2017-08-17T15:47:45.198Z,11.47
2017-08-17T15:50:12.307Z,11.00
2017-08-17T15:52:39.163Z,12.60
2017-08-17T15:55:06.904Z,12.73
2017-08-17T15:57:34.315Z,11.73
2017-08-17T16:00:01.420Z,11.23
2017-08-17T16:02:28.473Z,13.10
2017-08-17T16:04:55.340Z,15.07
2017-08-17T16:07:22.112Z,11.60
2017-08-17T16:09:49.018Z,12.60
2017-08-17T16:12:16.625Z,12.40
2017-08-17T16:14:44.399Z,13.00
2017-08-17T16:17:11.864Z,15.43
2017-08-17T16:19:39.073Z,13.97
2017-08-17T16:22:06.126Z,15.00
2017-08-17T16:24:33.018Z,14.10
2017-08-17T16:27:00.487Z,14.53
2017-08-17T16:29:27.957Z,16.53
2017-08-17T16:31:55.485Z,14.53
2017-08-17T16:34:22.274Z,11.60
2017-08-17T16:36:49.369Z,15.73
2017-08-17T16:39:16.202Z,13.23
2017-08-17T16:41:42.987Z,10.30
2017-08-17T16:44:10.267Z,12.87
2017-08-17T16:46:37.081Z,16.37
2017-08-17T16:49:04.327Z,13.03
2017-08-17T16:51:32.128Z,16.57
2017-08-17T16:53:59.948Z,16.93
2017-08-17T16:56:27.209Z,15.17
2017-08-17T16:58:54.072Z,13.20
2017-08-17T17:01:20.913Z,13.17
2017-08-17T17:03:48.178Z,17.57
2017-08-17T17:06:14.999Z,14.23
2017-08-17T17:08:42.282Z,14.90
2017-08-17T17:11:09.172Z,13.73
2017-08-17T17:13:36.390Z,15.30
2017-08-17T17:16:03.750Z,12.33
2017-08-17T17:18:30.658Z,13.60
2017-08-17T17:20:57.697Z,13.00
2017-08-17T17:23:24.854Z,14.73
2017-08-17T17:25:51.962Z,15.93
2017-08-17T17:28:19.016Z,15.67
2017-08-17T17:30:46.134Z,17.87
2017-08-17T17:33:12.967Z,16.40
2017-08-17T17:35:39.870Z,23.03
2017-08-17T17:38:06.930Z,17.33
2017-08-17T17:40:33.984Z,17.47
2017-08-17T17:43:01.037Z,15.13
2017-08-17T17:45:27.926Z,20.50
2017-08-17T17:47:54.766Z,19.97
2017-08-17T17:50:21.721Z,21.53
2017-08-17T17:52:48.933Z,20.77
2017-08-17T17:55:15.985Z,18.80
2017-08-17T17:57:43.141Z,20.87
2017-08-17T18:00:10.787Z,23.67
2017-08-17T18:02:38.688Z,21.20
2017-08-17T18:05:05.475Z,26.80
2017-08-17T18:07:32.627Z,24.10
2017-08-17T18:09:59.455Z,19.17
2017-08-17T18:12:26.588Z,24.63
2017-08-17T18:14:53.899Z,20.93
2017-08-17T18:17:21.188Z,24.00
2017-08-17T18:19:48.359Z,23.07
2017-08-17T18:22:15.899Z,23.77
2017-08-17T18:24:43.304Z,22.60
2017-08-17T18:27:10.443Z,22.50
2017-08-17T18:29:37.696Z,21.50
2017-08-17T18:32:05.039Z,25.57
2017-08-17T18:34:32.781Z,23.10
2017-08-17T18:36:59.741Z,26.37
2017-08-17T18:39:26.574Z,27.10
2017-08-17T18:41:53.679Z,24.80
2017-08-17T18:46:53.924Z,22.13
2017-08-17T18:49:20.980Z,22.73
2017-08-17T18:51:48.653Z,23.17
2017-08-17T18:54:15.704Z,24.40
2017-08-17T18:56:43.060Z,23.87
2017-08-17T18:59:10.312Z,21.20
2017-08-17T19:01:37.474Z,19.73
2017-08-17T19:04:05.637Z,26.77
2017-08-17T19:06:34.444Z,22.93
2017-08-17T19:09:02.624Z,24.03
2017-08-17T19:11:30.578Z,25.67
2017-08-17T19:13:58.466Z,23.10
2017-08-17T19:16:26.664Z,22.30
2017-08-17T19:18:54.956Z,24.13
2017-08-17T19:21:24.030Z,24.30
2017-08-17T19:23:52.096Z,26.57
2017-08-17T19:26:20.055Z,31.07
2017-08-17T19:28:48.255Z,24.60
2017-08-17T19:31:16.132Z,27.47
2017-08-17T19:33:44.078Z,27.17
2017-08-17T19:36:12.270Z,28.63
2017-08-17T19:38:40.551Z,27.43
2017-08-17T19:41:08.842Z,28.87
2017-08-17T19:43:36.819Z,25.00
2017-08-17T19:46:04.999Z,25.33
2017-08-17T19:48:32.863Z,24.53
2017-08-17T19:51:00.824Z,25.47
2017-08-17T19:53:29.009Z,26.33
2017-08-17T19:55:56.206Z,26.07
2017-08-17T19:58:23.335Z,26.37
2017-08-17T20:00:50.696Z,28.50
2017-08-17T20:03:18.903Z,31.80
2017-08-17T20:05:46.277Z,29.70
2017-08-17T20:08:13.543Z,34.10
2017-08-17T20:10:40.934Z,31.07
2017-08-17T20:13:08.460Z,29.10
2017-08-17T20:15:35.798Z,27.73
2017-08-17T20:18:02.648Z,28.13
2017-08-17T20:20:29.880Z,27.80
2017-08-17T20:22:57.546Z,28.97
2017-08-17T20:25:25.227Z,29.97
2017-08-17T20:27:52.006Z,27.50
2017-08-17T20:30:19.294Z,30.97
2017-08-17T20:32:47.746Z,32.40
2017-08-17T20:35:14.958Z,28.37
2017-08-17T20:37:41.758Z,29.53
2017-08-17T20:40:09.065Z,36.63
2017-08-17T20:42:36.120Z,30.17
2017-08-17T20:45:03.174Z,29.17
2017-08-17T20:47:30.226Z,30.10
2017-08-17T20:49:57.694Z,29.50
2017-08-17T20:52:24.482Z,27.90
2017-08-17T20:54:51.696Z,30.67
2017-08-17T20:57:18.519Z,27.83
2017-08-17T20:59:45.642Z,31.10
2017-08-17T21:02:13.447Z,30.30
2017-08-17T21:04:40.344Z,31.40
2017-08-17T21:07:07.925Z,31.80
2017-08-17T21:09:34.811Z,30.50
2017-08-17T21:12:02.611Z,33.20
2017-08-17T21:14:30.276Z,31.23
2017-08-17T21:16:57.107Z,39.13
2017-08-17T21:19:24.238Z,30.33
2017-08-17T21:21:51.986Z,27.50
2017-08-17T21:24:19.092Z,28.17
2017-08-17T21:26:45.906Z,30.57
2017-08-17T21:29:13.784Z,30.30
2017-08-17T21:31:41.173Z,27.43
2017-08-17T21:34:08.224Z,28.90
2017-08-17T21:36:35.286Z,34.63
2017-08-17T21:39:02.504Z,32.53
2017-08-17T21:41:29.421Z,29.87
2017-08-17T21:43:56.671Z,30.87
2017-08-17T21:46:23.695Z,32.63
2017-08-17T21:48:51.426Z,29.30
2017-08-17T21:51:18.218Z,27.90
2017-08-17T21:53:45.274Z,30.17
2017-08-17T21:56:12.105Z,31.63
2017-08-17T21:58:39.709Z,36.53
2017-08-17T22:01:06.802Z,33.70
2017-08-17T22:03:33.933Z,31.07
2017-08-17T22:06:01.195Z,33.13
2017-08-17T22:08:28.504Z,28.63
2017-08-17T22:10:55.379Z,32.90
2017-08-17T22:13:23.090Z,26.63
2017-08-17T22:15:50.239Z,33.57
2017-08-17T22:18:17.161Z,30.13
2017-08-17T22:20:43.935Z,32.83
2017-08-17T22:23:11.000Z,37.77
2017-08-17T22:25:38.183Z,35.57
2017-08-17T22:28:04.983Z,38.00
2017-08-17T22:30:31.804Z,37.67
2017-08-17T22:32:59.041Z,36.20
2017-08-17T22:35:25.898Z,40.57
2017-08-17T22:37:52.981Z,45.97
2017-08-17T22:40:20.309Z,37.97
2017-08-17T22:42:47.170Z,40.90
2017-08-17T22:45:14.737Z,37.90
2017-08-17T22:47:41.819Z,42.70
2017-08-17T22:50:09.018Z,41.77
2017-08-17T22:52:35.941Z,40.07
2017-08-17T22:55:03.128Z,39.00
2017-08-17T22:57:29.992Z,38.93
2017-08-17T22:59:57.235Z,35.70
2017-08-17T23:02:24.678Z,39.90
2017-08-17T23:04:52.226Z,43.23
2017-08-17T23:07:19.051Z,42.20
2017-08-17T23:09:45.827Z,39.37
2017-08-17T23:12:12.623Z,44.53
2017-08-17T23:14:39.447Z,36.77
2017-08-17T23:17:06.427Z,45.50
2017-08-17T23:19:33.795Z,45.40
2017-08-17T23:22:00.619Z,45.97
2017-08-17T23:24:27.766Z,43.37
2017-08-17T23:26:54.547Z,46.27
2017-08-17T23:29:21.390Z,51.17
2017-08-17T23:31:48.168Z,61.57
2017-08-17T23:34:15.363Z,51.80
2017-08-17T23:36:42.227Z,60.67
2017-08-17T23:39:09.026Z,57.67
2017-08-17T23:41:36.560Z,73.57
2017-08-17T23:44:03.410Z,60.17
2017-08-17T23:46:30.629Z,67.33
2017-08-17T23:48:57.679Z,60.40
2017-08-17T23:51:25.551Z,54.20
2017-08-17T23:53:52.554Z,58.73
2017-08-17T23:56:19.347Z,52.03
2017-08-17T23:58:46.331Z,56.40
